createdAt,value
2017-11-24T00:00:03.203Z,11.30
2017-11-24T00:02:29.552Z,11.40
2017-11-24T00:04:55.859Z,11.40
2017-11-24T00:07:22.177Z,11.40
2017-11-24T00:09:49.201Z,11.00
2017-11-24T00:12:15.519Z,11.00
2017-11-24T00:14:41.811Z,10.60
2017-11-24T00:17:08.115Z,10.50
2017-11-24T00:19:35.227Z,9.90
2017-11-24T00:22:03.065Z,9.80
2017-11-24T00:24:29.356Z,9.80
2017-11-24T00:26:56.421Z,9.80
2017-11-24T00:29:22.736Z,9.80
2017-11-24T00:31:49.774Z,9.90
2017-11-24T00:34:16.063Z,9.90
2017-11-24T00:36:49.382Z,9.90
2017-11-24T00:39:15.705Z,9.90
2017-11-24T00:41:42.040Z,9.80
2017-11-24T00:44:08.381Z,9.70
2017-11-24T00:46:34.688Z,9.60
2017-11-24T00:49:00.937Z,9.50
2017-11-24T00:51:27.303Z,9.30
2017-11-24T00:53:53.649Z,8.90
2017-11-24T00:56:19.954Z,8.80
2017-11-24T00:58:46.357Z,8.60
2017-11-24T01:01:12.973Z,8.50
2017-11-24T01:03:39.255Z,8.30
2017-11-24T01:06:05.572Z,8.30
2017-11-24T01:08:32.594Z,8.20
2017-11-24T01:10:58.934Z,8.20
2017-11-24T01:13:25.269Z,8.20
2017-11-24T01:15:51.585Z,8.10
2017-11-24T01:18:17.898Z,8.20
2017-11-24T01:20:44.269Z,8.30
2017-11-24T01:23:10.599Z,8.40
2017-11-24T01:25:36.932Z,8.40
2017-11-24T01:28:03.256Z,8.40
2017-11-24T01:30:29.563Z,8.40
2017-11-24T01:32:55.922Z,8.50
2017-11-24T01:35:22.223Z,8.40
2017-11-24T01:37:48.531Z,8.40
2017-11-24T01:40:14.783Z,8.30
2017-11-24T01:42:41.050Z,8.30
2017-11-24T01:45:07.304Z,8.20
2017-11-24T01:47:34.305Z,8.00
2017-11-24T01:50:02.080Z,8.00
2017-11-24T01:52:28.416Z,8.00
2017-11-24T01:54:54.748Z,7.90
2017-11-24T01:57:21.069Z,7.80
2017-11-24T01:59:47.396Z,7.80
2017-11-24T02:02:13.736Z,7.80
2017-11-24T02:04:40.006Z,7.70
2017-11-24T02:07:07.052Z,7.70
2017-11-24T02:09:33.321Z,7.70
2017-11-24T02:11:59.604Z,7.70
2017-11-24T02:14:26.659Z,7.80
2017-11-24T02:16:52.940Z,7.80
2017-11-24T02:19:19.213Z,7.80
2017-11-24T02:21:46.270Z,7.80
2017-11-24T02:24:12.553Z,7.80
2017-11-24T02:26:38.930Z,7.80
2017-11-24T02:29:05.305Z,7.70
2017-11-24T02:31:31.637Z,7.60
2017-11-24T02:33:57.909Z,7.50
2017-11-24T02:36:24.222Z,7.60
2017-11-24T02:38:50.475Z,7.50
2017-11-24T02:41:17.472Z,7.50
2017-11-24T02:43:43.751Z,7.40
2017-11-24T02:46:10.740Z,7.50
2017-11-24T02:48:37.210Z,7.50
2017-11-24T02:51:04.896Z,7.50
2017-11-24T02:53:31.930Z,7.60
2017-11-24T02:55:59.042Z,7.50
2017-11-24T02:58:25.384Z,7.50
2017-11-24T03:00:51.705Z,7.50
2017-11-24T03:03:17.990Z,7.40
2017-11-24T03:05:45.140Z,7.40
2017-11-24T03:08:12.142Z,7.40
2017-11-24T03:10:38.406Z,7.40
2017-11-24T03:13:05.465Z,7.30
2017-11-24T03:15:32.473Z,7.20
2017-11-24T03:17:58.725Z,7.20
2017-11-24T03:20:24.993Z,7.20
2017-11-24T03:22:51.325Z,7.20
2017-11-24T03:25:17.655Z,7.10
2017-11-24T03:27:43.955Z,7.10
2017-11-24T03:30:11.028Z,7.10
2017-11-24T03:32:37.290Z,7.10
2017-11-24T03:35:03.690Z,7.10
2017-11-24T03:37:29.988Z,7.10
2017-11-24T03:39:56.274Z,7.00
2017-11-24T03:42:22.659Z,7.00
2017-11-24T03:44:49.676Z,7.10
2017-11-24T03:47:15.961Z,7.10
2017-11-24T03:49:42.237Z,7.10
2017-11-24T03:52:08.548Z,7.20
2017-11-24T03:54:34.853Z,7.30
2017-11-24T03:57:01.166Z,7.40
2017-11-24T03:59:28.237Z,7.50
2017-11-24T04:01:54.530Z,7.50
2017-11-24T04:04:20.886Z,7.60
2017-11-24T04:06:47.204Z,7.60
2017-11-24T04:09:14.231Z,7.70
2017-11-24T04:11:40.523Z,7.70
2017-11-24T04:14:06.849Z,7.80
2017-11-24T04:16:33.157Z,7.80
2017-11-24T04:18:59.447Z,7.80
2017-11-24T04:21:25.785Z,7.80
2017-11-24T04:23:52.051Z,7.80
2017-11-24T04:26:18.340Z,7.80
2017-11-24T04:28:44.641Z,7.80
2017-11-24T04:31:10.954Z,7.70
2017-11-24T04:33:37.262Z,7.80
2017-11-24T04:36:03.652Z,7.80
2017-11-24T04:38:29.925Z,7.90
2017-11-24T04:40:56.962Z,8.00
2017-11-24T04:43:23.978Z,8.00
2017-11-24T04:45:50.239Z,7.90
2017-11-24T04:48:16.563Z,8.10
2017-11-24T04:50:42.888Z,8.00
2017-11-24T04:53:09.316Z,8.10
2017-11-24T04:55:35.655Z,8.10
2017-11-24T04:58:02.701Z,8.00
2017-11-24T05:00:29.032Z,8.00
2017-11-24T05:02:55.363Z,8.10
2017-11-24T05:05:23.153Z,8.10
2017-11-24T05:07:50.483Z,8.10
2017-11-24T05:10:16.781Z,8.10
2017-11-24T05:12:43.117Z,8.20
2017-11-24T05:15:09.380Z,8.10
2017-11-24T05:17:35.652Z,8.00
2017-11-24T05:20:01.968Z,7.90
2017-11-24T05:22:29.007Z,8.00
2017-11-24T05:24:56.057Z,7.90
2017-11-24T05:27:23.141Z,7.80
2017-11-24T05:29:49.408Z,7.80
2017-11-24T05:32:15.711Z,7.70
2017-11-24T05:34:42.022Z,7.60
2017-11-24T05:37:08.301Z,7.40
2017-11-24T05:39:34.672Z,7.40
2017-11-24T05:42:00.990Z,7.30
2017-11-24T05:44:27.333Z,7.20
2017-11-24T05:46:53.591Z,7.10
2017-11-24T05:49:19.978Z,7.00
2017-11-24T05:51:47.035Z,7.00
2017-11-24T05:54:13.323Z,7.00
2017-11-24T05:56:39.608Z,7.00
2017-11-24T05:59:05.954Z,6.90
2017-11-24T06:01:32.255Z,6.90
2017-11-24T06:03:58.583Z,6.80
2017-11-24T06:06:25.586Z,6.80
2017-11-24T06:08:51.881Z,6.80
2017-11-24T06:11:18.210Z,6.80
2017-11-24T06:13:44.575Z,6.80
2017-11-24T06:16:10.880Z,6.80
2017-11-24T06:18:37.219Z,6.80
2017-11-24T06:21:03.517Z,6.80
2017-11-24T06:23:30.579Z,6.70
2017-11-24T06:25:56.957Z,6.60
2017-11-24T06:28:23.237Z,6.60
2017-11-24T06:30:49.518Z,6.60
2017-11-24T06:33:15.817Z,6.60
2017-11-24T06:35:42.122Z,6.70
2017-11-24T06:38:08.441Z,6.70
2017-11-24T06:40:35.485Z,6.70
2017-11-24T06:43:02.537Z,6.70
2017-11-24T06:45:29.533Z,6.70
2017-11-24T06:47:55.874Z,6.70
2017-11-24T06:50:22.241Z,6.70
2017-11-24T06:52:49.324Z,6.70
2017-11-24T06:55:15.672Z,6.60
2017-11-24T06:57:42.064Z,6.70
2017-11-24T07:00:09.129Z,6.70
2017-11-24T07:02:35.450Z,6.70
2017-11-24T07:05:02.512Z,6.80
2017-11-24T07:07:28.829Z,6.80
2017-11-24T07:09:55.892Z,6.80
2017-11-24T07:12:22.174Z,6.80
2017-11-24T07:14:48.428Z,6.90
2017-11-24T07:17:15.466Z,6.90
2017-11-24T07:19:41.721Z,6.80
2017-11-24T07:22:08.060Z,6.80
2017-11-24T07:24:34.390Z,6.90
2017-11-24T07:27:00.725Z,7.00
2017-11-24T07:29:27.083Z,7.10
2017-11-24T07:31:53.618Z,7.20
2017-11-24T07:34:19.989Z,7.20
2017-11-24T07:36:48.394Z,7.30
2017-11-24T07:39:14.705Z,7.40
2017-11-24T07:41:41.738Z,7.50
2017-11-24T07:44:08.032Z,7.40
2017-11-24T07:46:34.291Z,7.50
2017-11-24T07:49:00.610Z,7.40
2017-11-24T07:51:26.970Z,7.40
2017-11-24T07:53:53.293Z,7.50
2017-11-24T07:56:19.693Z,7.60
2017-11-24T07:58:45.973Z,7.60
2017-11-24T08:01:12.282Z,7.70
2017-11-24T08:03:38.609Z,7.70
2017-11-24T08:06:04.870Z,7.80
2017-11-24T08:08:31.242Z,7.90
2017-11-24T08:10:57.647Z,8.00
2017-11-24T08:13:23.979Z,8.10
2017-11-24T08:15:50.302Z,8.20
2017-11-24T08:18:16.639Z,8.30
2017-11-24T08:20:42.993Z,8.40
2017-11-24T08:23:09.331Z,8.50
2017-11-24T08:25:35.704Z,8.60
2017-11-24T08:28:02.025Z,8.70
2017-11-24T08:30:28.355Z,8.90
2017-11-24T08:32:54.648Z,8.90
2017-11-24T08:35:20.952Z,8.90
2017-11-24T08:37:48.063Z,8.90
2017-11-24T08:40:14.458Z,8.90
2017-11-24T08:42:40.829Z,9.00
2017-11-24T08:45:07.302Z,9.30
2017-11-24T08:47:40.879Z,9.50
2017-11-24T08:50:07.233Z,9.60
2017-11-24T08:52:33.571Z,9.90
2017-11-24T08:54:59.896Z,10.10
2017-11-24T08:57:26.185Z,10.30
2017-11-24T08:59:52.555Z,10.60
2017-11-24T09:02:19.653Z,11.00
2017-11-24T09:04:46.002Z,10.90
2017-11-24T09:07:12.330Z,11.30
2017-11-24T09:09:38.712Z,11.60
2017-11-24T09:12:05.032Z,11.90
2017-11-24T09:14:32.188Z,11.80
2017-11-24T09:16:58.501Z,11.80
2017-11-24T09:19:25.523Z,11.80
2017-11-24T09:21:51.960Z,11.80
2017-11-24T09:24:18.327Z,11.90
2017-11-24T09:26:44.684Z,12.10
2017-11-24T09:29:11.012Z,12.20
2017-11-24T09:31:37.349Z,12.30
2017-11-24T09:34:03.673Z,12.50
2017-11-24T09:36:30.009Z,12.50
2017-11-24T09:38:56.433Z,12.50
2017-11-24T09:41:22.806Z,12.80
2017-11-24T09:43:49.101Z,12.70
2017-11-24T09:46:15.412Z,12.90
2017-11-24T09:48:41.769Z,12.90
2017-11-24T09:51:08.123Z,13.10
2017-11-24T09:53:34.435Z,13.40
2017-11-24T09:56:00.802Z,13.80
2017-11-24T09:58:27.140Z,14.20
2017-11-24T10:00:53.470Z,14.50
2017-11-24T10:03:20.066Z,14.60
2017-11-24T10:05:46.395Z,14.80
2017-11-24T10:08:17.694Z,14.80
2017-11-24T10:10:44.117Z,15.00
2017-11-24T10:13:10.403Z,15.20
2017-11-24T10:15:36.715Z,15.40
2017-11-24T10:18:03.185Z,15.60
2017-11-24T10:20:29.542Z,15.90
2017-11-24T10:22:55.898Z,16.00
2017-11-24T10:25:22.294Z,16.10
2017-11-24T10:27:49.040Z,16.40
2017-11-24T10:30:15.376Z,16.40
2017-11-24T10:32:41.665Z,16.30
2017-11-24T10:35:08.003Z,16.40
2017-11-24T10:37:34.923Z,16.60
2017-11-24T10:40:01.340Z,16.70
2017-11-24T10:42:28.402Z,16.80
2017-11-24T10:44:54.674Z,16.80
2017-11-24T10:47:20.957Z,17.00
2017-11-24T10:49:47.979Z,17.10
2017-11-24T10:52:14.283Z,17.10
2017-11-24T10:54:40.604Z,17.00
2017-11-24T10:57:06.904Z,17.10
2017-11-24T10:59:33.989Z,17.50
2017-11-24T11:02:01.237Z,17.50
2017-11-24T11:04:28.452Z,18.50
2017-11-24T11:06:55.575Z,18.00
2017-11-24T11:09:21.895Z,18.00
2017-11-24T11:11:48.200Z,17.80
2017-11-24T11:14:14.608Z,17.70
2017-11-24T11:16:41.189Z,17.50
2017-11-24T11:19:08.396Z,17.40
2017-11-24T11:21:34.667Z,17.30
2017-11-24T11:24:01.002Z,17.10
2017-11-24T11:26:27.293Z,17.10
2017-11-24T11:28:53.541Z,17.10
2017-11-24T11:31:19.858Z,17.30
2017-11-24T11:33:46.196Z,17.40
2017-11-24T11:36:12.517Z,17.80
2017-11-24T11:38:38.938Z,18.80
2017-11-24T11:41:06.003Z,19.20
2017-11-24T11:43:32.421Z,19.20
2017-11-24T11:45:58.868Z,19.90
2017-11-24T11:48:25.211Z,19.40
2017-11-24T11:50:51.681Z,19.50
2017-11-24T11:53:17.956Z,20.20
2017-11-24T11:55:44.263Z,20.20
2017-11-24T11:58:11.365Z,20.70
2017-11-24T12:00:37.736Z,20.80
2017-11-24T12:03:04.048Z,20.60
2017-11-24T12:05:30.386Z,20.10
2017-11-24T12:07:56.859Z,19.20
2017-11-24T12:10:23.384Z,19.10
2017-11-24T12:12:49.869Z,19.90
2017-11-24T12:15:16.961Z,19.70
2017-11-24T12:17:44.022Z,20.20
2017-11-24T12:20:10.608Z,20.10
2017-11-24T12:22:36.924Z,20.50
2017-11-24T12:25:03.247Z,20.00
2017-11-24T12:27:29.576Z,19.50
2017-11-24T12:29:55.911Z,20.30
2017-11-24T12:32:22.244Z,20.60
2017-11-24T12:34:48.584Z,20.50
2017-11-24T12:37:14.874Z,20.00
2017-11-24T12:39:42.009Z,20.00
2017-11-24T12:42:08.375Z,20.00
2017-11-24T12:44:34.677Z,20.60
2017-11-24T12:47:01.696Z,20.70
2017-11-24T12:49:28.053Z,20.70
2017-11-24T12:51:55.105Z,21.20
2017-11-24T12:54:22.229Z,20.90
2017-11-24T12:56:48.583Z,20.90
2017-11-24T12:59:15.624Z,20.90
2017-11-24T13:01:42.734Z,21.10
2017-11-24T13:04:09.043Z,21.10
2017-11-24T13:06:35.373Z,20.20
2017-11-24T13:09:01.701Z,20.50
2017-11-24T13:11:28.031Z,20.80
2017-11-24T13:13:54.467Z,20.90
2017-11-24T13:16:20.799Z,20.70
2017-11-24T13:18:47.235Z,19.70
2017-11-24T13:21:13.513Z,19.70
2017-11-24T13:23:39.826Z,19.10
2017-11-24T13:26:06.124Z,18.50
2017-11-24T13:28:32.398Z,18.00
2017-11-24T13:30:58.812Z,17.80
2017-11-24T13:33:25.129Z,17.50
2017-11-24T13:35:51.452Z,17.70
2017-11-24T13:38:17.755Z,17.80
2017-11-24T13:40:44.794Z,17.10
2017-11-24T13:43:11.075Z,17.10
2017-11-24T13:45:37.415Z,17.10
2017-11-24T13:48:03.722Z,17.00
2017-11-24T13:50:30.058Z,17.00
2017-11-24T13:52:56.458Z,16.90
2017-11-24T13:55:22.809Z,16.70
2017-11-24T13:57:49.184Z,16.40
2017-11-24T14:00:15.535Z,16.40
2017-11-24T14:02:41.864Z,16.20
2017-11-24T14:05:08.242Z,16.30
2017-11-24T14:07:34.585Z,16.20
2017-11-24T14:10:01.108Z,16.20
2017-11-24T14:12:27.439Z,16.30
2017-11-24T14:14:53.785Z,16.30
2017-11-24T14:17:20.120Z,16.20
2017-11-24T14:19:46.443Z,16.30
2017-11-24T14:22:12.767Z,16.40
2017-11-24T14:24:39.084Z,16.30
2017-11-24T14:27:06.197Z,16.00
2017-11-24T14:29:32.534Z,16.00
2017-11-24T14:31:59.275Z,15.90
2017-11-24T14:34:25.745Z,15.90
2017-11-24T14:36:52.821Z,15.80
2017-11-24T14:39:19.151Z,15.70
2017-11-24T14:41:45.508Z,15.70
2017-11-24T14:44:12.429Z,15.60
2017-11-24T14:46:39.070Z,15.60
2017-11-24T14:49:05.511Z,15.60
2017-11-24T14:51:32.587Z,15.60
2017-11-24T14:53:59.223Z,15.50
2017-11-24T14:56:27.779Z,15.50
2017-11-24T14:58:54.299Z,15.50
2017-11-24T15:01:20.750Z,15.50
2017-11-24T15:03:47.171Z,15.40
2017-11-24T15:06:13.588Z,15.30
2017-11-24T15:08:40.214Z,15.30
2017-11-24T15:11:06.807Z,15.10
2017-11-24T15:13:33.151Z,15.00
2017-11-24T15:15:59.609Z,15.00
2017-11-24T15:18:26.992Z,14.90
2017-11-24T15:20:53.452Z,14.90
2017-11-24T15:23:19.880Z,14.80
2017-11-24T15:25:46.169Z,14.80
2017-11-24T15:28:13.399Z,14.80
2017-11-24T15:30:39.974Z,14.70
2017-11-24T15:33:06.391Z,14.70
2017-11-24T15:35:32.813Z,14.70
2017-11-24T15:38:00.083Z,14.70
2017-11-24T15:40:27.165Z,14.70
2017-11-24T15:42:53.576Z,14.70
2017-11-24T15:45:20.095Z,14.60
2017-11-24T15:47:46.460Z,14.70
2017-11-24T15:50:12.773Z,14.70
2017-11-24T15:52:39.192Z,14.70
2017-11-24T15:55:06.306Z,14.60
2017-11-24T15:57:34.178Z,14.60
2017-11-24T16:00:00.651Z,14.60
2017-11-24T16:02:27.043Z,14.60
2017-11-24T16:04:53.601Z,14.50
2017-11-24T16:07:20.708Z,14.40
2017-11-24T16:09:48.188Z,14.40
2017-11-24T16:12:14.556Z,14.20
2017-11-24T16:14:40.900Z,14.20
2017-11-24T16:17:07.886Z,14.20
2017-11-24T16:19:34.188Z,14.30
2017-11-24T16:22:00.727Z,14.30
2017-11-24T16:24:27.056Z,14.40
2017-11-24T16:26:53.435Z,14.30
2017-11-24T16:29:20.557Z,14.30
2017-11-24T16:31:46.853Z,14.30
2017-11-24T16:34:14.066Z,14.20
2017-11-24T16:36:41.131Z,14.10
2017-11-24T16:39:08.185Z,14.20
2017-11-24T16:41:35.400Z,14.10
2017-11-24T16:44:01.844Z,14.10
2017-11-24T16:46:28.318Z,14.00
2017-11-24T16:48:56.753Z,14.00
2017-11-24T16:51:23.230Z,14.00
2017-11-24T16:53:49.587Z,13.80
2017-11-24T16:56:15.884Z,13.90
2017-11-24T16:58:42.961Z,13.70
2017-11-24T17:01:09.330Z,13.70
2017-11-24T17:03:35.712Z,13.70
2017-11-24T17:06:02.094Z,13.70
2017-11-24T17:08:28.466Z,13.70
2017-11-24T17:10:55.550Z,13.60
2017-11-24T17:13:21.996Z,13.60
2017-11-24T17:15:48.332Z,13.60
2017-11-24T17:18:16.532Z,13.60
2017-11-24T17:20:43.598Z,13.70
2017-11-24T17:23:10.050Z,13.60
2017-11-24T17:25:36.395Z,13.60
2017-11-24T17:28:02.696Z,13.80
2017-11-24T17:30:30.045Z,13.90
2017-11-24T17:32:56.476Z,13.90
2017-11-24T17:35:23.620Z,13.90
2017-11-24T17:37:50.810Z,14.00
2017-11-24T17:40:17.151Z,14.00
2017-11-24T17:42:43.473Z,14.00
2017-11-24T17:45:09.880Z,14.00
2017-11-24T17:47:36.949Z,14.10
2017-11-24T17:50:03.320Z,14.00
2017-11-24T17:52:29.698Z,14.00
2017-11-24T17:54:56.744Z,14.10
2017-11-24T17:57:23.800Z,14.10
2017-11-24T17:59:50.225Z,14.10
2017-11-24T18:02:17.342Z,13.20
2017-11-24T18:04:43.652Z,13.10
2017-11-24T18:07:10.008Z,12.60
2017-11-24T18:09:36.419Z,12.10
2017-11-24T18:12:02.794Z,11.80
2017-11-24T18:14:29.165Z,11.60
2017-11-24T18:16:55.532Z,11.40
2017-11-24T18:19:21.814Z,11.40
2017-11-24T18:21:48.202Z,11.30
2017-11-24T18:24:14.556Z,11.30
2017-11-24T18:26:41.640Z,11.20
2017-11-24T18:29:07.953Z,11.20
2017-11-24T18:31:34.322Z,11.20
2017-11-24T18:34:00.627Z,11.10
2017-11-24T18:36:27.041Z,11.10
2017-11-24T18:38:53.544Z,11.10
2017-11-24T18:41:20.668Z,11.20
2017-11-24T18:43:46.988Z,11.20
2017-11-24T18:46:14.289Z,11.20
2017-11-24T18:48:41.542Z,11.30
2017-11-24T18:51:08.953Z,11.30
2017-11-24T18:53:35.533Z,11.30
2017-11-24T18:56:02.704Z,11.40
2017-11-24T18:58:29.884Z,11.40
2017-11-24T19:00:56.383Z,11.40
2017-11-24T19:03:24.059Z,11.40
2017-11-24T19:05:51.251Z,11.40
2017-11-24T19:08:17.617Z,11.30
2017-11-24T19:10:44.976Z,11.10
2017-11-24T19:13:12.093Z,11.20
2017-11-24T19:15:38.579Z,11.20
2017-11-24T19:18:05.026Z,11.20
2017-11-24T19:20:31.457Z,11.10
2017-11-24T19:22:57.864Z,11.00
2017-11-24T19:25:25.003Z,11.10
2017-11-24T19:27:51.426Z,11.00
2017-11-24T19:30:17.903Z,11.00
2017-11-24T19:32:44.527Z,11.00
2017-11-24T19:35:11.584Z,10.80
2017-11-24T19:37:38.966Z,10.70
2017-11-24T19:40:05.507Z,10.70
2017-11-24T19:42:31.892Z,10.60
2017-11-24T19:44:58.312Z,10.60
2017-11-24T19:47:24.595Z,10.60
2017-11-24T19:49:50.970Z,10.60
2017-11-24T19:52:17.382Z,10.70
2017-11-24T19:54:43.759Z,10.70
2017-11-24T19:57:10.056Z,10.50
2017-11-24T19:59:37.639Z,10.50
2017-11-24T20:02:04.848Z,10.40
2017-11-24T20:04:31.436Z,10.40
2017-11-24T20:06:57.782Z,10.30
2017-11-24T20:09:24.965Z,10.30
2017-11-24T20:11:51.385Z,10.20
2017-11-24T20:14:17.767Z,10.20
2017-11-24T20:16:44.076Z,10.20
2017-11-24T20:19:10.628Z,10.20
2017-11-24T20:21:36.922Z,10.30
2017-11-24T20:24:03.254Z,10.20
2017-11-24T20:26:29.618Z,10.20
2017-11-24T20:28:56.021Z,10.20
2017-11-24T20:31:22.504Z,10.20
2017-11-24T20:33:48.830Z,10.10
2017-11-24T20:36:16.128Z,10.10
2017-11-24T20:38:42.540Z,10.10
2017-11-24T20:41:09.597Z,9.90
2017-11-24T20:43:36.741Z,10.00
2017-11-24T20:46:04.391Z,10.10
2017-11-24T20:48:31.500Z,10.10
2017-11-24T20:50:57.852Z,10.10
2017-11-24T20:53:24.247Z,10.30
2017-11-24T20:55:50.602Z,10.30
2017-11-24T20:58:17.095Z,10.30
2017-11-24T21:00:43.596Z,10.30
2017-11-24T21:03:09.924Z,10.30
2017-11-24T21:05:36.318Z,10.20
2017-11-24T21:08:02.671Z,10.20
2017-11-24T21:10:29.144Z,10.20
2017-11-24T21:13:03.263Z,10.20
2017-11-24T21:15:30.429Z,10.10
2017-11-24T21:17:56.874Z,10.10
2017-11-24T21:20:23.282Z,10.20
2017-11-24T21:22:50.448Z,10.20
2017-11-24T21:25:16.975Z,10.20
2017-11-24T21:27:43.646Z,10.10
2017-11-24T21:30:10.379Z,10.20
2017-11-24T21:32:36.710Z,10.30
2017-11-24T21:35:03.104Z,10.20
2017-11-24T21:37:30.208Z,10.20
2017-11-24T21:39:56.985Z,10.20
2017-11-24T21:42:23.655Z,10.20
2017-11-24T21:44:50.906Z,10.10
2017-11-24T21:47:17.756Z,10.00
2017-11-24T21:49:44.279Z,10.00
2017-11-24T21:52:10.617Z,10.00
2017-11-24T21:54:37.041Z,9.90
2017-11-24T21:57:04.187Z,10.10
2017-11-24T21:59:32.167Z,10.10
2017-11-24T22:01:58.850Z,10.10
2017-11-24T22:04:25.663Z,9.90
2017-11-24T22:06:52.026Z,9.80
2017-11-24T22:09:18.416Z,9.90
2017-11-24T22:11:44.809Z,10.10
2017-11-24T22:14:11.304Z,10.20
2017-11-24T22:16:37.663Z,10.20
2017-11-24T22:19:04.054Z,10.20
2017-11-24T22:21:30.756Z,10.20
2017-11-24T22:23:57.126Z,10.30
2017-11-24T22:26:23.452Z,10.40
2017-11-24T22:28:49.829Z,10.30
2017-11-24T22:31:16.251Z,10.30
2017-11-24T22:33:42.612Z,10.20
2017-11-24T22:36:09.093Z,10.00
2017-11-24T22:38:35.487Z,9.90
2017-11-24T22:41:01.913Z,9.80
2017-11-24T22:43:28.409Z,9.80
2017-11-24T22:45:54.751Z,9.90
2017-11-24T22:48:21.072Z,9.90
2017-11-24T22:50:47.427Z,9.90
2017-11-24T22:53:13.809Z,9.90
2017-11-24T22:55:40.176Z,9.90
2017-11-24T22:58:06.510Z,9.90
2017-11-24T23:00:32.875Z,9.70
2017-11-24T23:02:59.715Z,9.60
2017-11-24T23:05:26.015Z,9.70
2017-11-24T23:07:52.353Z,9.70
2017-11-24T23:10:18.666Z,9.80
2017-11-24T23:12:45.000Z,9.80
2017-11-24T23:15:11.396Z,9.80
2017-11-24T23:17:38.457Z,9.90
2017-11-24T23:20:05.073Z,9.80
2017-11-24T23:22:31.430Z,9.80
2017-11-24T23:24:57.760Z,9.80
2017-11-24T23:27:24.233Z,9.80
2017-11-24T23:29:50.645Z,9.80
2017-11-24T23:32:16.917Z,9.60
2017-11-24T23:34:43.208Z,9.60
2017-11-24T23:37:09.984Z,9.70
2017-11-24T23:39:36.281Z,9.70
2017-11-24T23:42:03.037Z,9.80
2017-11-24T23:44:29.463Z,9.70
2017-11-24T23:46:55.783Z,9.70
2017-11-24T23:49:22.158Z,9.80
2017-11-24T23:51:48.548Z,9.90
2017-11-24T23:54:14.883Z,9.90
2017-11-24T23:56:41.412Z,9.90
2017-11-24T23:59:07.734Z,9.90
